Time;durP1;ratioP1;P1;durP2;ratioP2;P2;SDS_P1;SDS_P2;PMS_P1;PMS_P2;Temp;Humidity;BMP_temperature;BMP_pressure;BME280_temperature;BME280_humidity;BME280_pressure;Samples;Min_cycle;Max_cycle;Signal;HPM_P1;HPM_P2
2021/12/07 00:01:54;;;;;;;33.85;16.67;;;;;;;2.61;100.00;100036.97;5055584;28;20040;-68
2021/12/07 00:04:21;;;;;;;42.60;16.95;;;;;;;2.60;100.00;100046.63;5058253;28;20025;-68
2021/12/07 00:06:47;;;;;;;42.25;18.23;;;;;;;2.66;100.00;100046.06;5041248;28;20102;-65
2021/12/07 00:09:16;;;;;;;44.85;18.10;;;;;;;2.55;100.00;100021.78;5045242;28;20029;-66
2021/12/07 00:11:43;;;;;;;40.97;17.13;;;;;;;2.65;100.00;100044.44;5046226;28;20037;-69
2021/12/07 00:14:13;;;;;;;36.30;17.77;;;;;;;2.67;100.00;100039.88;5061375;28;20026;-69
2021/12/07 00:16:44;;;;;;;43.85;17.55;;;;;;;2.70;100.00;100044.81;5053225;28;20033;-67
2021/12/07 00:19:13;;;;;;;41.33;16.70;;;;;;;2.62;100.00;100033.38;5046219;28;20021;-67
2021/12/07 00:21:40;;;;;;;35.17;16.55;;;;;;;2.56;100.00;100042.59;5065337;28;20060;-65
2021/12/07 00:24:06;;;;;;;38.13;17.00;;;;;;;2.55;100.00;100047.97;5053376;28;20029;-65
2021/12/07 00:26:31;;;;;;;29.60;15.73;;;;;;;2.51;100.00;100054.47;5058583;28;20027;-70
2021/12/07 00:28:58;;;;;;;31.20;15.25;;;;;;;2.51;100.00;100057.91;5065809;28;20016;-69
2021/12/07 00:31:34;;;;;;;33.40;15.30;;;;;;;2.47;100.00;100046.84;5059144;28;20037;-67
2021/12/07 00:36:47;;;;;;;32.80;15.32;;;;;;;2.50;100.00;100064.09;5049349;28;20034;-68
2021/12/07 00:39:15;;;;;;;35.10;15.63;;;;;;;2.45;100.00;100061.88;5054840;28;20495;-66
2021/12/07 00:41:41;;;;;;;30.70;13.52;;;;;;;2.51;100.00;100067.56;5050797;28;20119;-67
2021/12/07 00:44:07;;;;;;;34.88;15.48;;;;;;;2.51;100.00;100060.53;5054290;28;20183;-67
2021/12/07 00:46:34;;;;;;;44.38;16.65;;;;;;;2.57;100.00;100051.28;5040887;28;20024;-66
2021/12/07 00:49:01;;;;;;;27.60;15.10;;;;;;;2.54;100.00;100052.38;5045716;28;20013;-67
2021/12/07 00:51:26;;;;;;;34.67;15.55;;;;;;;2.49;100.00;100049.34;5053192;28;20087;-67
2021/12/07 00:53:53;;;;;;;50.05;18.58;;;;;;;2.44;100.00;100047.13;5046881;28;20021;-68
2021/12/07 00:56:19;;;;;;;29.00;15.13;;;;;;;2.40;100.00;100044.91;5056027;28;20052;-70
2021/12/07 00:58:45;;;;;;;31.85;16.40;;;;;;;2.41;100.00;100057.03;5059910;28;20063;-68
2021/12/07 01:01:14;;;;;;;33.00;15.25;;;;;;;2.43;100.00;100050.72;5053228;28;20033;-69
2021/12/07 01:03:41;;;;;;;36.30;16.23;;;;;;;2.43;100.00;100044.66;5056174;28;20017;-67
2021/12/07 01:25:21;;;;;;;31.85;16.08;;;;;;;2.26;100.00;100022.56;5043183;28;20091;-68
2021/12/07 01:27:49;;;;;;;38.72;16.70;;;;;;;2.22;100.00;100026.41;5057659;28;20391;-66
2021/12/07 01:30:20;;;;;;;36.20;15.60;;;;;;;2.21;100.00;100011.69;5048290;28;20031;-67
2021/12/07 01:52:02;;;;;;;31.67;13.95;;;;;;;2.25;100.00;100001.75;5055481;28;20095;-69
2021/12/07 01:59:47;;;;;;;32.80;13.57;;;;;;;2.22;100.00;99974.09;5060377;28;20065;-67
2021/12/07 02:02:15;;;;;;;36.92;15.43;;;;;;;2.20;100.00;99971.59;5068242;28;20047;-67
2021/12/07 02:04:41;;;;;;;39.53;14.23;;;;;;;2.17;100.00;99978.88;5053941;28;20029;-66
2021/12/07 02:07:07;;;;;;;28.65;14.60;;;;;;;2.20;100.00;99986.44;5059823;28;20039;-65
2021/12/07 02:09:35;;;;;;;34.55;14.15;;;;;;;2.14;100.00;99987.00;5038538;28;20029;-69
2021/12/07 02:12:02;;;;;;;37.67;14.52;;;;;;;2.16;100.00;99977.22;5049419;28;20068;-69
2021/12/07 02:14:30;;;;;;;32.33;15.20;;;;;;;2.20;100.00;99975.97;5047816;28;20016;-66
2021/12/07 02:17:02;;;;;;;32.50;14.70;;;;;;;2.16;100.00;99982.47;5059990;28;20052;-69
2021/12/07 02:19:27;;;;;;;34.95;14.45;;;;;;;2.13;100.00;99980.09;5054157;28;20364;-65
2021/12/07 02:21:54;;;;;;;30.42;15.05;;;;;;;2.17;100.00;99981.50;5054576;28;20094;-68
2021/12/07 02:24:20;;;;;;;31.02;14.45;;;;;;;2.19;100.00;99988.25;5055195;28;20063;-70
2021/12/07 02:26:47;;;;;;;40.60;14.57;;;;;;;2.23;100.00;99978.34;5039020;28;20388;-68
2021/12/07 02:29:13;;;;;;;43.88;16.92;;;;;;;2.20;100.00;99968.13;5058936;28;20040;-68
2021/12/07 02:31:39;;;;;;;37.42;15.32;;;;;;;2.20;100.00;99965.50;5063796;28;20028;-68
2021/12/07 02:34:05;;;;;;;39.50;16.08;;;;;;;2.20;100.00;99969.00;5050269;28;20082;-68
2021/12/07 02:36:31;;;;;;;44.38;16.33;;;;;;;2.25;100.00;99975.59;5056685;28;20142;-65
2021/12/07 02:38:56;;;;;;;41.13;16.65;;;;;;;2.22;100.00;99971.47;5054814;28;20462;-67
2021/12/07 02:41:22;;;;;;;40.38;17.73;;;;;;;2.24;100.00;99973.94;5050701;28;20021;-65
2021/12/07 02:43:48;;;;;;;35.35;17.08;;;;;;;2.19;100.00;99979.56;5049544;28;20128;-68
2021/12/07 02:46:14;;;;;;;36.03;17.80;;;;;;;2.17;100.00;99984.09;5057443;28;20213;-65
2021/12/07 02:48:39;;;;;;;46.58;15.88;;;;;;;2.20;100.00;99987.31;5063012;28;20037;-66
2021/12/07 02:51:05;;;;;;;42.13;17.52;;;;;;;2.25;100.00;99981.66;5053452;28;20388;-66
2021/12/07 02:53:33;;;;;;;44.08;17.63;;;;;;;2.29;100.00;99996.13;5052721;28;20097;-67
2021/12/07 02:56:01;;;;;;;45.83;15.68;;;;;;;2.24;100.00;99979.16;5063475;28;20390;-67
2021/12/07 02:58:27;;;;;;;32.35;16.65;;;;;;;2.30;100.00;99976.84;5054532;28;20017;-67
2021/12/07 03:01:02;;;;;;;38.60;18.63;;;;;;;2.32;100.00;99966.22;5055895;28;20123;-70
2021/12/07 03:03:31;;;;;;;46.10;17.52;;;;;;;2.30;100.00;99966.38;5052819;28;20056;-65
2021/12/07 03:27:50;;;;;;;32.85;16.45;;;;;;;2.41;100.00;99981.13;5051284;28;20040;-66
2021/12/07 03:30:15;;;;;;;39.80;17.45;;;;;;;2.39;100.00;99977.81;5050476;28;20351;-69
2021/12/07 03:32:41;;;;;;;43.47;16.05;;;;;;;2.42;100.00;99973.16;5057858;28;20542;-69
2021/12/07 03:35:07;;;;;;;41.17;16.73;;;;;;;2.38;100.00;99976.16;5055184;28;20060;-66
2021/12/07 03:37:32;;;;;;;42.88;17.20;;;;;;;2.37;100.00;99974.53;5037219;28;20021;-68
2021/12/07 03:39:58;;;;;;;54.08;19.13;;;;;;;2.39;100.00;99975.19;5046309;28;20075;-68
2021/12/07 03:42:23;;;;;;;43.70;17.80;;;;;;;2.39;100.00;99983.06;5049705;28;20112;-71
2021/12/07 03:44:49;;;;;;;43.97;18.27;;;;;;;2.41;100.00;99984.56;5053453;28;20374;-67
2021/12/07 03:47:14;;;;;;;55.53;17.88;;;;;;;2.40;100.00;99969.81;5050211;28;20029;-70
2021/12/07 03:49:40;;;;;;;48.17;17.38;;;;;;;2.41;100.00;99976.72;5036726;28;20040;-68
2021/12/07 03:52:05;;;;;;;42.28;17.45;;;;;;;2.44;100.00;99984.31;5042725;28;20025;-66
2021/12/07 03:54:31;;;;;;;47.60;18.92;;;;;;;2.47;100.00;99985.81;5052791;28;20020;-66
2021/12/07 03:56:57;;;;;;;44.15;17.33;;;;;;;2.25;100.00;99965.94;5055220;28;20055;-68
2021/12/07 03:59:22;;;;;;;42.50;16.27;;;;;;;2.33;100.00;99968.72;5050294;28;20032;-70
2021/12/07 04:01:48;;;;;;;43.42;17.23;;;;;;;2.36;100.00;99973.69;5051501;28;20029;-68
2021/12/07 04:04:13;;;;;;;42.08;16.38;;;;;;;2.34;100.00;99964.31;5046149;28;20024;-69
2021/12/07 04:06:40;;;;;;;30.17;15.43;;;;;;;2.34;100.00;99966.91;5048252;28;20451;-67
2021/12/07 04:09:06;;;;;;;41.92;17.25;;;;;;;2.27;100.00;99971.03;5050503;28;20059;-68
2021/12/07 04:11:31;;;;;;;39.70;16.67;;;;;;;2.28;100.00;99967.47;5048503;28;20073;-69
2021/12/07 04:13:57;;;;;;;29.63;14.75;;;;;;;2.33;100.00;99981.78;5049172;28;20521;-65
2021/12/07 04:16:22;;;;;;;34.28;14.27;;;;;;;2.32;100.00;99974.91;5050442;28;20036;-66
2021/12/07 04:18:48;;;;;;;42.80;16.70;;;;;;;2.33;100.00;99970.50;5054793;28;20036;-67
2021/12/07 04:21:13;;;;;;;32.80;15.27;;;;;;;2.32;100.00;99961.81;5050127;28;20534;-69
2021/12/07 04:23:39;;;;;;;28.63;13.38;;;;;;;2.21;100.00;99946.25;5050660;28;20025;-67
2021/12/07 04:26:07;;;;;;;29.92;14.95;;;;;;;2.27;100.00;99960.56;5057772;28;20032;-70
2021/12/07 04:28:34;;;;;;;25.17;14.55;;;;;;;2.21;100.00;99957.56;5063650;28;20047;-70
2021/12/07 04:30:59;;;;;;;29.40;15.23;;;;;;;2.28;100.00;99957.00;5052706;28;20069;-67
2021/12/07 04:33:28;;;;;;;37.83;14.80;;;;;;;2.27;100.00;99956.16;5050550;28;20153;-68
2021/12/07 04:35:54;;;;;;;25.58;13.60;;;;;;;2.26;100.00;99953.69;5063049;28;20013;-66
2021/12/07 04:38:19;;;;;;;26.75;15.00;;;;;;;2.19;100.00;99963.88;5047776;28;20035;-69
2021/12/07 04:40:45;;;;;;;29.08;14.45;;;;;;;2.19;100.00;99979.56;5047676;28;20375;-67
2021/12/07 04:43:11;;;;;;;20.83;13.75;;;;;;;2.24;100.00;99977.38;5046242;28;20033;-71
2021/12/07 04:58:56;;;;;;;27.33;13.88;;;;;;;2.50;100.00;99980.31;5039156;28;20496;-71
2021/12/07 05:01:21;;;;;;;33.17;16.55;;;;;;;2.51;100.00;99974.13;5040953;28;20068;-70
2021/12/07 05:03:49;;;;;;;34.00;15.05;;;;;;;2.28;100.00;99964.84;5043002;28;20021;-71
2021/12/07 05:06:15;;;;;;;26.85;13.85;;;;;;;2.33;100.00;99967.88;5045727;28;20084;-74
2021/12/07 05:08:44;;;;;;;25.05;14.20;;;;;;;2.34;100.00;99957.28;5043625;28;20505;-72
2021/12/07 05:11:43;;;;;;;27.10;14.95;;;;;;;2.28;100.00;99968.31;5039065;28;20072;-73
2021/12/07 05:16:53;;;;;;;29.20;14.45;;;;;;;2.31;100.00;99957.56;5053299;28;20060;-73
2021/12/07 05:25:22;;;;;;;33.22;15.05;;;;;;;2.59;100.00;99968.19;5040778;28;20125;-77
2021/12/07 05:38:38;;;;;;;30.80;14.82;;;;;;;2.18;100.00;99970.06;5037397;28;20483;-74
2021/12/07 05:41:08;;;;;;;30.20;16.40;;;;;;;2.19;100.00;99964.69;5040942;28;20030;-72
2021/12/07 05:43:35;;;;;;;26.75;15.90;;;;;;;2.12;100.00;99968.81;5036925;28;20096;-74
2021/12/07 05:46:03;;;;;;;28.75;15.88;;;;;;;2.09;100.00;99963.03;5036701;28;20033;-70
2021/12/07 05:48:28;;;;;;;26.15;13.68;;;;;;;2.05;100.00;99952.00;5037326;28;20082;-74
2021/12/07 05:50:54;;;;;;;32.22;16.27;;;;;;;2.06;100.00;99955.47;5042857;28;20049;-74
2021/12/07 05:53:19;;;;;;;29.85;15.52;;;;;;;2.04;100.00;99954.75;5042274;28;20157;-72
2021/12/07 05:55:45;;;;;;;32.33;16.58;;;;;;;2.03;100.00;99945.25;5044349;28;20040;-72
2021/12/07 05:58:12;;;;;;;35.72;17.25;;;;;;;1.98;100.00;99939.56;5035623;28;20364;-74
2021/12/07 06:00:42;;;;;;;29.25;15.95;;;;;;;1.96;100.00;99941.50;5037887;28;20033;-73
2021/12/07 06:03:09;;;;;;;30.02;14.70;;;;;;;2.00;100.00;99935.88;5042804;28;20021;-75
2021/12/07 06:05:36;;;;;;;30.48;16.73;;;;;;;2.03;100.00;99929.53;5040312;28;20025;-76
2021/12/07 06:08:02;;;;;;;35.38;16.30;;;;;;;2.05;100.00;99935.47;5036062;28;20475;-71
2021/12/07 06:10:27;;;;;;;26.65;15.27;;;;;;;2.03;100.00;99956.53;5042388;28;20060;-65
2021/12/07 06:12:53;;;;;;;34.55;16.77;;;;;;;1.99;100.00;99959.56;5047717;28;20152;-70
2021/12/07 06:15:22;;;;;;;37.50;17.27;;;;;;;2.21;100.00;99952.31;5048873;28;20534;-76
2021/12/07 06:17:48;;;;;;;35.92;15.88;;;;;;;2.31;100.00;99951.50;5034427;28;20359;-69
2021/12/07 06:20:15;;;;;;;35.03;17.05;;;;;;;2.33;100.00;99950.38;5038922;28;20073;-71
2021/12/07 06:22:41;;;;;;;33.22;15.80;;;;;;;2.32;100.00;99955.78;5046061;28;20518;-73
2021/12/07 06:25:07;;;;;;;28.77;14.98;;;;;;;2.14;100.00;99937.28;5056062;28;20077;-70
2021/12/07 06:27:33;;;;;;;24.15;15.32;;;;;;;2.09;100.00;99923.78;5042085;28;20487;-70
2021/12/07 06:29:59;;;;;;;29.38;14.77;;;;;;;2.20;100.00;99923.66;5057132;28;20082;-72
2021/12/07 06:32:25;;;;;;;27.48;14.93;;;;;;;2.23;100.00;99926.00;5066683;28;20525;-71
2021/12/07 06:34:52;;;;;;;28.98;15.98;;;;;;;2.30;100.00;99931.53;5063130;28;20108;-69
2021/12/07 06:37:17;;;;;;;29.27;15.45;;;;;;;2.40;100.00;99942.81;5051875;28;20021;-71
2021/12/07 06:39:43;;;;;;;29.33;15.90;;;;;;;2.34;100.00;99957.28;5061530;28;20038;-74
2021/12/07 06:42:09;;;;;;;31.15;16.08;;;;;;;2.29;100.00;99956.06;5041200;28;20071;-71
2021/12/07 06:44:34;;;;;;;30.75;14.98;;;;;;;2.46;100.00;99958.81;5056584;28;20493;-73
2021/12/07 06:47:00;;;;;;;29.00;15.77;;;;;;;2.50;100.00;99956.75;5062911;28;20029;-69
2021/12/07 06:49:26;;;;;;;38.15;14.77;;;;;;;2.33;100.00;99949.56;5048180;28;20460;-76
2021/12/07 06:51:52;;;;;;;27.83;14.30;;;;;;;2.35;100.00;99953.72;5051407;28;20063;-72
2021/12/07 06:54:18;;;;;;;27.55;16.90;;;;;;;2.42;100.00;99957.44;5051645;28;20052;-72
2021/12/07 06:56:44;;;;;;;32.60;16.77;;;;;;;2.61;100.00;99950.56;5062712;28;20359;-74
2021/12/07 06:59:10;;;;;;;29.88;15.02;;;;;;;2.51;100.00;99953.19;5056138;28;20407;-72
2021/12/07 07:01:35;;;;;;;29.38;15.20;;;;;;;2.66;100.00;99967.50;5053671;28;20025;-74
2021/12/07 07:04:02;;;;;;;25.70;13.68;;;;;;;2.38;100.00;99963.91;5056777;28;20087;-74
2021/12/07 07:06:28;;;;;;;32.22;16.02;;;;;;;2.41;100.00;99961.00;5044332;28;20017;-71
2021/12/07 07:08:54;;;;;;;33.22;14.40;;;;;;;2.32;100.00;99956.59;5048955;28;20116;-70
2021/12/07 07:11:20;;;;;;;22.33;14.02;;;;;;;2.56;100.00;99968.47;5045054;28;20046;-73
2021/12/07 07:13:47;;;;;;;31.38;16.02;;;;;;;2.41;100.00;99955.78;5047671;28;20048;-72
2021/12/07 07:16:13;;;;;;;32.88;14.93;;;;;;;2.60;100.00;99951.53;5059582;28;20387;-71
2021/12/07 07:18:39;;;;;;;27.48;15.77;;;;;;;2.54;100.00;99958.13;5047588;28;20139;-71
2021/12/07 07:21:06;;;;;;;23.42;13.60;;;;;;;2.37;100.00;99959.63;5044231;28;20120;-73
2021/12/07 07:23:32;;;;;;;25.05;14.25;;;;;;;2.30;100.00;99955.09;5046880;28;20033;-69
2021/12/07 07:25:57;;;;;;;27.00;14.80;;;;;;;2.22;100.00;99950.53;5029763;28;20040;-68
2021/12/07 07:28:27;;;;;;;26.55;14.00;;;;;;;2.30;100.00;99961.16;5034545;28;20035;-70
2021/12/07 07:30:53;;;;;;;26.48;14.07;;;;;;;2.33;100.00;99960.84;5036322;28;20120;-69
2021/12/07 07:33:20;;;;;;;26.00;14.45;;;;;;;2.29;100.00;99958.66;5035331;28;20079;-70
2021/12/07 07:35:45;;;;;;;34.67;15.88;;;;;;;2.31;100.00;99964.59;5025029;28;20537;-67
2021/12/07 07:38:11;;;;;;;27.27;14.25;;;;;;;2.20;100.00;99949.81;5036826;28;20125;-73
2021/12/07 07:40:36;;;;;;;23.95;14.10;;;;;;;2.24;100.00;99960.84;5037664;28;20498;-72
2021/12/07 07:43:02;;;;;;;33.42;17.27;;;;;;;2.26;100.00;99969.38;5049704;28;20044;-69
2021/12/07 07:45:28;;;;;;;37.78;16.20;;;;;;;2.36;100.00;99971.06;5037096;28;20030;-69
2021/12/07 07:47:54;;;;;;;31.60;15.55;;;;;;;2.12;100.00;99945.25;5041826;28;20029;-70
2021/12/07 07:50:21;;;;;;;31.75;16.77;;;;;;;2.30;100.00;99969.00;5040238;28;20474;-71
2021/12/07 07:52:46;;;;;;;32.97;15.70;;;;;;;2.21;100.00;99964.56;5034790;28;20139;-71
2021/12/07 07:55:13;;;;;;;31.02;14.52;;;;;;;2.29;100.00;99977.81;5028746;28;20120;-74
2021/12/07 07:57:39;;;;;;;35.00;17.40;;;;;;;2.23;100.00;99991.44;5035475;28;20017;-70
2021/12/07 08:00:10;;;;;;;27.63;14.98;;;;;;;2.37;100.00;99990.22;5022201;28;20610;-70
2021/12/07 08:02:36;;;;;;;29.33;16.33;;;;;;;2.24;100.00;99979.16;5037632;28;20463;-70
2021/12/07 08:05:02;;;;;;;31.05;15.38;;;;;;;2.39;100.00;99985.66;5035087;28;20033;-69
2021/12/07 08:07:27;;;;;;;32.35;14.70;;;;;;;2.34;100.00;99988.69;5039799;28;20021;-71
2021/12/07 08:09:53;;;;;;;28.88;14.20;;;;;;;2.24;100.00;99982.63;5052157;28;20021;-70
2021/12/07 08:12:18;;;;;;;34.22;16.02;;;;;;;2.28;100.00;99991.00;5039259;28;20059;-72
2021/12/07 08:14:44;;;;;;;25.73;13.98;;;;;;;2.33;100.00;99994.06;5043723;28;20052;-73
2021/12/07 08:17:11;;;;;;;32.42;14.18;;;;;;;2.34;100.00;99983.44;5042086;28;20093;-73
2021/12/07 08:19:37;;;;;;;26.38;15.38;;;;;;;2.34;100.00;99972.16;5036152;28;20352;-76
2021/12/07 08:22:03;;;;;;;27.85;13.52;;;;;;;2.40;100.00;99971.63;5031682;28;20040;-68
2021/12/07 08:24:29;;;;;;;25.73;14.77;;;;;;;2.41;100.00;99981.13;5035979;28;20463;-71
2021/12/07 08:26:54;;;;;;;31.38;15.68;;;;;;;2.33;100.00;99966.09;5037858;28;20029;-72
2021/12/07 08:29:20;;;;;;;23.30;14.55;;;;;;;2.28;100.00;99963.06;5033870;28;20025;-73
2021/12/07 08:31:45;;;;;;;20.15;12.95;;;;;;;2.30;100.00;99976.03;5043568;28;20029;-68
2021/12/07 08:34:11;;;;;;;22.08;15.07;;;;;;;2.27;100.00;99974.47;5037294;28;20056;-69
2021/12/07 08:36:37;;;;;;;36.55;14.55;;;;;;;2.35;100.00;99979.03;5035425;28;20479;-71
2021/12/07 08:39:04;;;;;;;23.45;12.98;;;;;;;2.35;100.00;99979.91;5034403;28;20037;-73
2021/12/07 08:41:30;;;;;;;30.90;15.18;;;;;;;2.19;100.00;99979.56;5045032;28;20032;-70
2021/12/07 08:43:56;;;;;;;23.65;12.55;;;;;;;2.30;100.00;99970.78;5036169;28;20030;-75
2021/12/07 08:46:22;;;;;;;31.25;15.20;;;;;;;2.37;100.00;99974.53;5041463;28;20025;-68
2021/12/07 08:48:47;;;;;;;25.70;13.95;;;;;;;2.34;100.00;99961.69;5051647;28;20090;-69
2021/12/07 08:51:16;;;;;;;21.15;13.18;;;;;;;2.29;100.00;99959.50;5042236;28;20028;-64
2021/12/07 08:53:57;;;;;;;23.10;13.55;;;;;;;2.30;100.00;99965.56;5045006;28;20037;-68
2021/12/07 09:01:52;;;;;;;22.95;13.40;;;;;;;2.28;100.00;99917.72;5035105;28;20106;-71
2021/12/07 09:04:20;;;;;;;22.23;13.30;;;;;;;2.28;100.00;99915.97;5036792;28;20122;-75
2021/12/07 09:06:46;;;;;;;25.23;14.60;;;;;;;2.15;100.00;99918.00;5028741;28;20041;-69
2021/12/07 09:09:12;;;;;;;30.13;14.07;;;;;;;2.15;100.00;99938.94;5029816;28;22477;-70
2021/12/07 09:11:38;;;;;;;28.83;14.25;;;;;;;2.23;100.00;99936.47;5042597;28;20103;-72
2021/12/07 09:14:03;;;;;;;23.92;13.85;;;;;;;2.20;100.00;99923.66;5036176;28;20052;-72
2021/12/07 09:16:29;;;;;;;25.45;13.65;;;;;;;2.12;100.00;99916.47;5037351;28;20470;-74
2021/12/07 09:18:54;;;;;;;20.38;12.02;;;;;;;2.19;100.00;99933.28;5040392;28;20048;-70
2021/12/07 09:21:20;;;;;;;35.10;14.75;;;;;;;2.12;100.00;99932.16;5035820;28;20027;-70
2021/12/07 09:23:47;;;;;;;27.88;12.68;;;;;;;1.97;100.00;99930.91;5032832;28;20371;-68
2021/12/07 09:26:13;;;;;;;19.63;12.05;;;;;;;1.93;100.00;99929.53;5027270;28;20120;-69
2021/12/07 09:28:39;;;;;;;21.02;11.13;;;;;;;2.00;100.00;99930.66;5030692;28;20240;-74
2021/12/07 09:31:07;;;;;;;21.98;12.93;;;;;;;1.98;100.00;99935.16;5030340;28;20466;-71
2021/12/07 09:33:33;;;;;;;16.95;11.57;;;;;;;1.94;100.00;99931.19;5035467;28;20025;-68
2021/12/07 09:35:59;;;;;;;25.13;13.80;;;;;;;1.84;100.00;99925.94;5027059;28;20041;-72
2021/12/07 09:38:25;;;;;;;20.08;11.95;;;;;;;1.96;100.00;99921.41;5038873;28;20454;-72
2021/12/07 09:40:52;;;;;;;23.73;12.20;;;;;;;2.04;100.00;99912.88;5041652;28;20060;-71
2021/12/07 09:43:19;;;;;;;20.27;11.52;;;;;;;2.01;100.00;99893.06;5044512;28;20040;-70
2021/12/07 09:45:45;;;;;;;19.33;10.55;;;;;;;1.89;100.00;99886.28;5033999;28;20025;-67
2021/12/07 09:48:13;;;;;;;17.80;11.88;;;;;;;1.88;100.00;99900.34;5033446;28;20759;-70
2021/12/07 09:50:42;;;;;;;24.95;12.35;;;;;;;1.93;100.00;99898.97;5050559;28;20028;-72
2021/12/07 09:53:10;;;;;;;28.70;13.57;;;;;;;1.94;100.00;99903.25;5039324;28;20032;-74
2021/12/07 09:55:38;;;;;;;22.27;12.73;;;;;;;2.09;100.00;99895.00;5037836;28;20017;-70
2021/12/07 09:58:05;;;;;;;21.33;11.55;;;;;;;1.91;100.00;99887.00;5034122;28;20032;-73
2021/12/07 10:00:31;;;;;;;20.63;12.60;;;;;;;2.02;100.00;99886.03;5039680;28;20082;-75
2021/12/07 10:02:57;;;;;;;21.55;11.88;;;;;;;2.03;100.00;99885.91;5042264;28;20116;-72
2021/12/07 10:05:24;;;;;;;25.13;12.55;;;;;;;1.98;100.00;99885.47;5039053;28;20789;-78
2021/12/07 10:07:51;;;;;;;20.95;11.98;;;;;;;2.09;100.00;99881.91;5040405;28;20025;-72
2021/12/07 10:10:22;;;;;;;23.67;11.38;;;;;;;1.93;100.00;99875.44;5043635;28;20053;-71
2021/12/07 10:12:48;;;;;;;20.40;12.20;;;;;;;1.87;100.00;99885.59;5042427;28;20401;-68
2021/12/07 10:15:16;;;;;;;15.63;10.68;;;;;;;1.88;100.00;99893.31;5036942;28;20029;-67
2021/12/07 10:17:42;;;;;;;20.02;11.55;;;;;;;1.82;100.00;99895.63;5048240;28;20025;-69
2021/12/07 10:20:33;;;;;;;24.13;11.20;;;;;;;1.87;100.00;99893.44;5037162;28;20037;-68
2021/12/07 10:23:06;;;;;;;20.02;11.13;;;;;;;1.88;100.00;99900.34;5043522;28;20029;-70
2021/12/07 10:25:31;;;;;;;20.58;10.80;;;;;;;1.74;100.00;99917.22;5045561;28;20478;-69
2021/12/07 10:27:57;;;;;;;16.50;10.65;;;;;;;1.76;100.00;99911.84;5050538;28;20079;-67
2021/12/07 10:30:23;;;;;;;14.85;11.13;;;;;;;1.83;100.00;99907.75;5039024;28;20036;-77
2021/12/07 10:33:00;;;;;;;18.13;11.70;;;;;;;1.79;100.00;99914.22;5037807;28;20490;-74
2021/12/07 10:35:30;;;;;;;20.23;12.13;;;;;;;1.78;100.00;99907.34;5034926;28;20091;-72
2021/12/07 10:38:16;;;;;;;14.93;10.88;;;;;;;1.82;100.00;99899.06;5042674;28;20063;-71
2021/12/07 10:41:03;;;;;;;15.60;9.75;;;;;;;1.85;100.00;99904.06;5057917;28;20409;-70
2021/12/07 10:43:43;;;;;;;25.50;12.68;;;;;;;1.79;100.00;99898.53;5031168;28;20025;-70
2021/12/07 10:46:33;;;;;;;17.73;10.63;;;;;;;1.85;100.00;99893.59;5048693;28;20366;-72
2021/12/07 10:49:20;;;;;;;16.48;11.35;;;;;;;1.85;100.00;99885.75;5047275;28;20033;-71
2021/12/07 10:52:07;;;;;;;15.25;9.52;;;;;;;1.90;100.00;99891.38;5040331;28;20040;-71
2021/12/07 10:54:46;;;;;;;19.42;11.48;;;;;;;1.83;100.00;99900.72;5059186;28;20051;-73
2021/12/07 10:57:19;;;;;;;18.20;11.60;;;;;;;1.87;100.00;99901.28;5029984;28;20151;-70
2021/12/07 10:59:53;;;;;;;15.57;10.15;;;;;;;1.93;100.00;99901.59;5047607;28;20017;-71
2021/12/07 11:02:19;;;;;;;18.70;10.67;;;;;;;1.86;100.00;99894.41;5060237;28;20040;-70
2021/12/07 11:04:46;;;;;;;20.90;12.85;;;;;;;1.77;100.00;99888.22;5032059;28;20038;-69
2021/12/07 11:07:21;;;;;;;13.85;9.80;;;;;;;1.75;100.00;99884.06;5051620;28;20047;-71
2021/12/07 11:09:51;;;;;;;21.80;11.88;;;;;;;1.83;100.00;99898.09;5049559;28;20055;-71
2021/12/07 11:12:19;;;;;;;12.80;10.52;;;;;;;1.70;100.00;99892.31;5061767;28;20044;-69
2021/12/07 11:14:52;;;;;;;16.83;10.38;;;;;;;1.72;100.00;99893.00;5053988;28;20039;-71
2021/12/07 11:17:22;;;;;;;18.40;10.85;;;;;;;1.71;100.00;99886.13;5051473;28;20044;-72
2021/12/07 11:19:48;;;;;;;13.90;10.70;;;;;;;1.70;100.00;99899.34;5039985;28;20026;-72
2021/12/07 11:22:16;;;;;;;22.90;12.52;;;;;;;1.68;100.00;99896.81;5036214;28;20382;-73
2021/12/07 11:24:45;;;;;;;15.20;10.65;;;;;;;1.66;100.00;99907.44;5033193;28;20021;-75
2021/12/07 11:30:17;;;;;;;16.58;10.25;;;;;;;1.54;100.00;99878.91;5036453;28;20047;-73
2021/12/07 11:32:48;;;;;;;16.08;11.32;;;;;;;1.61;100.00;99872.19;5044345;28;20032;-75
2021/12/07 11:35:26;;;;;;;15.77;9.80;;;;;;;1.54;100.00;99878.91;5044533;28;20542;-69
2021/12/07 11:37:55;;;;;;;12.73;9.52;;;;;;;1.63;100.00;99868.50;5038855;28;20032;-70
2021/12/07 11:40:31;;;;;;;17.17;10.48;;;;;;;1.62;100.00;99860.78;5035297;28;20025;-71
2021/12/07 11:42:58;;;;;;;14.25;10.15;;;;;;;1.56;100.00;99859.53;5044822;28;20156;-70
2021/12/07 11:45:28;;;;;;;16.83;10.35;;;;;;;1.52;100.00;99865.16;5044605;28;20091;-70
2021/12/07 11:48:01;;;;;;;15.45;11.05;;;;;;;1.50;100.00;99856.63;5041144;28;20024;-71
2021/12/07 11:50:32;;;;;;;14.05;10.15;;;;;;;1.56;100.00;99853.47;5035815;28;20568;-68
2021/12/07 11:53:10;;;;;;;18.17;11.70;;;;;;;1.50;100.00;99867.06;5040067;28;20111;-74
2021/12/07 11:55:39;;;;;;;14.52;10.32;;;;;;;1.31;100.00;99855.56;5036889;28;20029;-72
2021/12/07 11:58:07;;;;;;;15.27;9.18;;;;;;;1.49;100.00;99860.19;5037541;28;20028;-71
2021/12/07 12:00:39;;;;;;;15.18;10.68;;;;;;;1.54;100.00;99857.97;5035142;28;20444;-70
2021/12/07 12:03:07;;;;;;;12.00;10.00;;;;;;;1.53;100.00;99857.16;5041503;28;20037;-71
2021/12/07 12:05:34;;;;;;;11.85;9.65;;;;;;;1.45;100.00;99848.34;5036234;28;20103;-70
2021/12/07 12:08:01;;;;;;;11.82;9.85;;;;;;;1.49;100.00;99853.19;5042725;28;20056;-67
2021/12/07 12:10:29;;;;;;;14.40;9.65;;;;;;;1.47;100.00;99846.41;5043411;28;20494;-71
2021/12/07 12:13:32;;;;;;;14.73;9.90;;;;;;;1.47;100.00;99856.88;5037461;28;20466;-71
2021/12/07 12:16:10;;;;;;;12.82;9.35;;;;;;;1.51;100.00;99860.88;5034763;28;20607;-76
2021/12/07 12:18:48;;;;;;;14.07;10.27;;;;;;;1.45;100.00;99859.63;5045386;28;20029;-71
2021/12/07 12:21:24;;;;;;;13.10;10.18;;;;;;;1.50;100.00;99867.91;5034409;28;20037;-71
2021/12/07 12:24:34;;;;;;;13.70;10.75;;;;;;;1.53;100.00;99867.63;5037605;28;20060;-73
2021/12/07 12:27:10;;;;;;;16.80;9.77;;;;;;;1.57;100.00;99879.47;5036267;28;20039;-72
2021/12/07 12:29:38;;;;;;;13.25;10.13;;;;;;;1.51;100.00;99871.34;5028177;28;20037;-69
2021/12/07 12:32:04;;;;;;;14.25;8.73;;;;;;;1.54;100.00;99874.53;5044148;28;20026;-69
2021/12/07 12:34:33;;;;;;;12.85;9.95;;;;;;;1.46;100.00;99891.81;5034890;28;20033;-72
2021/12/07 12:37:31;;;;;;;11.52;9.65;;;;;;;1.47;100.00;99883.84;5043668;28;20109;-68
2021/12/07 12:40:03;;;;;;;13.05;9.02;;;;;;;1.47;100.00;99870.78;5048857;28;20037;-65
2021/12/07 12:42:29;;;;;;;12.32;9.27;;;;;;;1.49;100.00;99871.47;5044473;28;22878;-68
2021/12/07 12:45:02;;;;;;;13.00;9.57;;;;;;;1.57;100.00;99869.03;5040986;28;20021;-68
2021/12/07 12:47:31;;;;;;;14.80;9.65;;;;;;;1.53;100.00;99872.84;5040516;28;20053;-69
2021/12/07 12:50:10;;;;;;;14.50;8.15;;;;;;;1.52;100.00;99891.28;5037582;28;20029;-70
2021/12/07 12:53:00;;;;;;;14.35;8.52;;;;;;;1.67;100.00;99877.69;5045028;28;20039;-71
2021/12/07 12:55:31;;;;;;;12.10;8.68;;;;;;;1.55;100.00;99878.78;5051650;28;20502;-68
2021/12/07 12:57:57;;;;;;;11.38;8.65;;;;;;;1.64;100.00;99877.97;5038908;28;20037;-66
2021/12/07 13:00:23;;;;;;;15.15;9.45;;;;;;;1.61;100.00;99880.03;5047086;28;20037;-72
2021/12/07 13:03:09;;;;;;;14.98;9.70;;;;;;;1.59;100.00;99885.38;5050232;28;20356;-69
2021/12/07 13:05:36;;;;;;;9.07;7.78;;;;;;;1.48;100.00;99885.50;5049511;28;20035;-69
2021/12/07 13:08:20;;;;;;;12.50;8.98;;;;;;;1.50;100.00;99901.06;5044183;28;20030;-69
2021/12/07 13:11:04;;;;;;;12.33;9.83;;;;;;;1.48;100.00;99900.38;5036191;28;20054;-66
2021/12/07 13:13:36;;;;;;;19.00;9.25;;;;;;;1.53;100.00;99906.81;5032446;28;20058;-72